sensor_id;sensor_type;location;lat;lon;timestamp;pressure;altitude;pressure_sealevel;temperature;humidity
29385;BME280;16367;48.736;9.218;2023-07-16T00:01:31;-23784.47;;;19.57;100.00
29385;BME280;16367;48.736;9.218;2023-07-16T00:03:34;-23780.06;;;19.43;100.00
29385;BME280;16367;48.736;9.218;2023-07-16T00:05:37;-23786.66;;;19.64;100.00
29385;BME280;16367;48.736;9.218;2023-07-16T00:07:40;-23789.03;;;19.72;100.00
29385;BME280;16367;48.736;9.218;2023-07-16T00:09:43;-23781.19;;;19.47;100.00
29385;BME280;16367;48.736;9.218;2023-07-16T00:11:46;-23777.88;;;19.36;100.00
29385;BME280;16367;48.736;9.218;2023-07-16T00:13:49;-23787.63;;;19.67;100.00
29385;BME280;16367;48.736;9.218;2023-07-16T00:15:51;-23779.28;;;19.41;100.00
29385;BME280;16367;48.736;9.218;2023-07-16T00:17:54;-23777.25;;;19.34;100.00
29385;BME280;16367;48.736;9.218;2023-07-16T00:19:57;-23777.88;;;19.36;100.00
29385;BME280;16367;48.736;9.218;2023-07-16T00:22:00;-23778.50;;;19.38;100.00
29385;BME280;16367;48.736;9.218;2023-07-16T00:24:03;-23783.84;;;19.55;100.00
29385;BME280;16367;48.736;9.218;2023-07-16T00:26:07;-23781.81;;;19.49;100.00
29385;BME280;16367;48.736;9.218;2023-07-16T00:28:10;-23780.38;;;19.44;100.00
29385;BME280;16367;48.736;9.218;2023-07-16T00:30:14;-23774.41;;;19.25;100.00
29385;BME280;16367;48.736;9.218;2023-07-16T00:32:16;-23772.84;;;19.20;100.00
29385;BME280;16367;48.736;9.218;2023-07-16T00:34:19;-23780.06;;;19.43;100.00
29385;BME280;16367;48.736;9.218;2023-07-16T00:36:22;-23783.69;;;19.55;100.00
29385;BME280;16367;48.736;9.218;2023-07-16T00:38:25;-23778.97;;;19.40;100.00
29385;BME280;16367;48.736;9.218;2023-07-16T00:40:28;-23776.94;;;19.33;100.00
29385;BME280;16367;48.736;9.218;2023-07-16T00:42:31;-23782.91;;;19.52;100.00
29385;BME280;16367;48.736;9.218;2023-07-16T00:44:33;-23782.75;;;19.52;100.00
29385;BME280;16367;48.736;9.218;2023-07-16T00:46:36;-23782.91;;;19.52;100.00
29385;BME280;16367;48.736;9.218;2023-07-16T00:48:40;-23785.72;;;19.61;100.00
29385;BME280;16367;48.736;9.218;2023-07-16T00:50:44;-23786.34;;;19.63;100.00
29385;BME280;16367;48.736;9.218;2023-07-16T00:52:47;-23784.47;;;19.57;100.00
29385;BME280;16367;48.736;9.218;2023-07-16T00:54:50;-23786.66;;;19.64;100.00
29385;BME280;16367;48.736;9.218;2023-07-16T00:56:53;-23780.06;;;19.43;100.00
29385;BME280;16367;48.736;9.218;2023-07-16T00:58:57;-23783.22;;;19.53;100.00
29385;BME280;16367;48.736;9.218;2023-07-16T01:01:00;-23787.63;;;19.67;100.00
29385;BME280;16367;48.736;9.218;2023-07-16T01:03:04;-23781.81;;;19.49;100.00
29385;BME280;16367;48.736;9.218;2023-07-16T01:05:08;-23781.50;;;19.48;100.00
29385;BME280;16367;48.736;9.218;2023-07-16T01:07:13;-23780.88;;;19.46;100.00
29385;BME280;16367;48.736;9.218;2023-07-16T01:09:17;-23783.53;;;19.54;100.00
29385;BME280;16367;48.736;9.218;2023-07-16T01:11:21;-23780.69;;;19.45;100.00
29385;BME280;16367;48.736;9.218;2023-07-16T01:13:25;-23776.78;;;19.32;100.00
29385;BME280;16367;48.736;9.218;2023-07-16T01:15:29;-23778.66;;;19.39;100.00
29385;BME280;16367;48.736;9.218;2023-07-16T01:17:32;-23777.25;;;19.34;100.00
29385;BME280;16367;48.736;9.218;2023-07-16T01:19:35;-23779.44;;;19.41;100.00
29385;BME280;16367;48.736;9.218;2023-07-16T01:21:44;-23776.94;;;19.33;100.00
29385;BME280;16367;48.736;9.218;2023-07-16T01:23:56;-23773.94;;;19.23;100.00
29385;BME280;16367;48.736;9.218;2023-07-16T01:26:08;-23773.16;;;19.21;100.00
29385;BME280;16367;48.736;9.218;2023-07-16T01:30:55;-23774.72;;;19.26;100.00
29385;BME280;16367;48.736;9.218;2023-07-16T01:33:01;-23769.22;;;19.08;100.00
29385;BME280;16367;48.736;9.218;2023-07-16T01:35:07;-23769.69;;;19.10;100.00
29385;BME280;16367;48.736;9.218;2023-07-16T01:37:10;-23767.19;;;19.02;100.00
29385;BME280;16367;48.736;9.218;2023-07-16T01:39:12;-23765.47;;;18.96;100.00
29385;BME280;16367;48.736;9.218;2023-07-16T01:41:16;-23765.63;;;18.97;100.00
29385;BME280;16367;48.736;9.218;2023-07-16T01:43:18;-23764.50;;;18.93;100.00
29385;BME280;16367;48.736;9.218;2023-07-16T01:45:21;-23760.91;;;18.82;100.00
29385;BME280;16367;48.736;9.218;2023-07-16T01:47:39;-23767.03;;;19.01;100.00
29385;BME280;16367;48.736;9.218;2023-07-16T01:49:42;-23762.16;;;18.86;100.00
29385;BME280;16367;48.736;9.218;2023-07-16T01:51:45;-23761.38;;;18.83;100.00
29385;BME280;16367;48.736;9.218;2023-07-16T01:53:47;-23759.66;;;18.78;100.00
29385;BME280;16367;48.736;9.218;2023-07-16T01:55:50;-23756.50;;;18.68;100.00
29385;BME280;16367;48.736;9.218;2023-07-16T01:57:53;-23756.19;;;18.67;100.00
29385;BME280;16367;48.736;9.218;2023-07-16T01:59:56;-23756.34;;;18.67;100.00
29385;BME280;16367;48.736;9.218;2023-07-16T02:01:59;-23753.69;;;18.58;100.00
29385;BME280;16367;48.736;9.218;2023-07-16T02:04:03;-23753.38;;;18.57;100.00
29385;BME280;16367;48.736;9.218;2023-07-16T02:06:06;-23756.19;;;18.67;100.00
29385;BME280;16367;48.736;9.218;2023-07-16T02:08:08;-23752.25;;;18.54;100.00
29385;BME280;16367;48.736;9.218;2023-07-16T02:10:11;-23745.97;;;18.34;100.00
29385;BME280;16367;48.736;9.218;2023-07-16T02:12:14;-23745.50;;;18.32;100.00
29385;BME280;16367;48.736;9.218;2023-07-16T02:14:17;-23746.44;;;18.35;100.00
29385;BME280;16367;48.736;9.218;2023-07-16T02:16:19;-23747.84;;;18.40;100.00
29385;BME280;16367;48.736;9.218;2023-07-16T02:18:22;-23747.06;;;18.37;100.00
29385;BME280;16367;48.736;9.218;2023-07-16T02:20:26;-23745.81;;;18.33;100.00
29385;BME280;16367;48.736;9.218;2023-07-16T02:22:29;-23743.28;;;18.25;100.00
29385;BME280;16367;48.736;9.218;2023-07-16T02:24:32;-23746.91;;;18.37;100.00
29385;BME280;16367;48.736;9.218;2023-07-16T02:26:34;-23743.44;;;18.26;100.00
29385;BME280;16367;48.736;9.218;2023-07-16T02:28:37;-23740.16;;;18.15;100.00
29385;BME280;16367;48.736;9.218;2023-07-16T02:30:40;-23740.94;;;18.18;100.00
29385;BME280;16367;48.736;9.218;2023-07-16T02:32:43;-23735.13;;;17.99;100.00
29385;BME280;16367;48.736;9.218;2023-07-16T02:34:46;-23734.97;;;17.99;100.00
29385;BME280;16367;48.736;9.218;2023-07-16T02:36:50;-23740.31;;;18.16;100.00
29385;BME280;16367;48.736;9.218;2023-07-16T02:38:53;-23740.16;;;18.15;100.00
29385;BME280;16367;48.736;9.218;2023-07-16T02:40:56;-23742.03;;;18.21;100.00
29385;BME280;16367;48.736;9.218;2023-07-16T02:42:58;-23738.25;;;18.09;100.00
29385;BME280;16367;48.736;9.218;2023-07-16T02:45:01;-23737.16;;;18.06;100.00
29385;BME280;16367;48.736;9.218;2023-07-16T02:47:04;-23733.84;;;17.95;100.00
29385;BME280;16367;48.736;9.218;2023-07-16T02:49:07;-23730.72;;;17.85;100.00
29385;BME280;16367;48.736;9.218;2023-07-16T02:51:09;-23731.66;;;17.88;100.00
29385;BME280;16367;48.736;9.218;2023-07-16T02:53:14;-23724.59;;;17.65;100.00
29385;BME280;16367;48.736;9.218;2023-07-16T02:55:16;-23728.97;;;17.79;100.00
29385;BME280;16367;48.736;9.218;2023-07-16T02:57:21;-23725.69;;;17.69;100.00
29385;BME280;16367;48.736;9.218;2023-07-16T02:59:24;-23723.16;;;17.61;100.00
29385;BME280;16367;48.736;9.218;2023-07-16T03:01:26;-23719.69;;;17.50;100.00
29385;BME280;16367;48.736;9.218;2023-07-16T03:03:29;-23722.53;;;17.59;100.00
29385;BME280;16367;48.736;9.218;2023-07-16T03:05:36;-23719.38;;;17.49;100.00
29385;BME280;16367;48.736;9.218;2023-07-16T03:07:38;-23716.88;;;17.41;100.00
29385;BME280;16367;48.736;9.218;2023-07-16T03:09:42;-23721.59;;;17.56;100.00
29385;BME280;16367;48.736;9.218;2023-07-16T03:11:45;-23717.19;;;17.42;100.00
29385;BME280;16367;48.736;9.218;2023-07-16T03:13:48;-23719.22;;;17.48;100.00
29385;BME280;16367;48.736;9.218;2023-07-16T03:15:51;-23722.69;;;17.59;100.00
29385;BME280;16367;48.736;9.218;2023-07-16T03:17:54;-23716.06;;;17.38;100.00
29385;BME280;16367;48.736;9.218;2023-07-16T03:19:56;-23717.50;;;17.43;100.00
29385;BME280;16367;48.736;9.218;2023-07-16T03:21:58;-23716.88;;;17.41;100.00
29385;BME280;16367;48.736;9.218;2023-07-16T03:24:01;-23711.50;;;17.24;100.00
29385;BME280;16367;48.736;9.218;2023-07-16T03:26:05;-23712.47;;;17.27;100.00
29385;BME280;16367;48.736;9.218;2023-07-16T03:28:08;-23715.28;;;17.36;100.00
29385;BME280;16367;48.736;9.218;2023-07-16T03:30:11;-23714.03;;;17.32;100.00
29385;BME280;16367;48.736;9.218;2023-07-16T03:32:13;-23717.81;;;17.44;100.00
29385;BME280;16367;48.736;9.218;2023-07-16T03:34:16;-23713.88;;;17.31;100.00
29385;BME280;16367;48.736;9.218;2023-07-16T03:36:19;-23716.41;;;17.39;100.00
29385;BME280;16367;48.736;9.218;2023-07-16T03:38:21;-23715.75;;;17.37;100.00
29385;BME280;16367;48.736;9.218;2023-07-16T03:40:26;-23715.91;;;17.38;100.00
29385;BME280;16367;48.736;9.218;2023-07-16T03:42:30;-23714.34;;;17.33;100.00
29385;BME280;16367;48.736;9.218;2023-07-16T03:44:33;-23718.59;;;17.46;100.00
29385;BME280;16367;48.736;9.218;2023-07-16T03:46:36;-23715.28;;;17.36;100.00
29385;BME280;16367;48.736;9.218;2023-07-16T03:48:39;-23717.81;;;17.44;100.00
29385;BME280;16367;48.736;9.218;2023-07-16T03:50:41;-23715.91;;;17.38;100.00
29385;BME280;16367;48.736;9.218;2023-07-16T03:52:44;-23714.66;;;17.34;100.00
29385;BME280;16367;48.736;9.218;2023-07-16T03:54:47;-23713.41;;;17.30;100.00
29385;BME280;16367;48.736;9.218;2023-07-16T03:56:49;-23715.28;;;17.36;100.00
29385;BME280;16367;48.736;9.218;2023-07-16T03:58:53;-23715.13;;;17.35;100.00
29385;BME280;16367;48.736;9.218;2023-07-16T04:00:56;-23714.66;;;17.34;100.00
29385;BME280;16367;48.736;9.218;2023-07-16T04:02:59;-23715.59;;;17.37;100.00
29385;BME280;16367;48.736;9.218;2023-07-16T04:05:02;-23711.19;;;17.23;100.00
29385;BME280;16367;48.736;9.218;2023-07-16T04:07:05;-23711.66;;;17.24;100.00
29385;BME280;16367;48.736;9.218;2023-07-16T04:09:07;-23707.41;;;17.10;100.00
29385;BME280;16367;48.736;9.218;2023-07-16T04:11:09;-23711.81;;;17.25;100.00
29385;BME280;16367;48.736;9.218;2023-07-16T04:13:12;-23709.47;;;17.17;100.00
29385;BME280;16367;48.736;9.218;2023-07-16T04:15:16;-23712.78;;;17.28;100.00
29385;BME280;16367;48.736;9.218;2023-07-16T04:17:18;-23717.03;;;17.41;100.00
29385;BME280;16367;48.736;9.218;2023-07-16T04:19:20;-23718.59;;;17.46;100.00
29385;BME280;16367;48.736;9.218;2023-07-16T04:21:23;-23712.47;;;17.27;100.00
29385;BME280;16367;48.736;9.218;2023-07-16T04:23:25;-23718.13;;;17.45;100.00
29385;BME280;16367;48.736;9.218;2023-07-16T04:25:27;-23719.22;;;17.48;100.00
29385;BME280;16367;48.736;9.218;2023-07-16T04:27:31;-23720.66;;;17.53;100.00
29385;BME280;16367;48.736;9.218;2023-07-16T04:29:33;-23723.16;;;17.61;100.00
29385;BME280;16367;48.736;9.218;2023-07-16T04:31:37;-23719.06;;;17.48;100.00
29385;BME280;16367;48.736;9.218;2023-07-16T04:33:40;-23719.88;;;17.50;100.00
29385;BME280;16367;48.736;9.218;2023-07-16T04:35:42;-23720.97;;;17.54;100.00
29385;BME280;16367;48.736;9.218;2023-07-16T04:37:44;-23716.72;;;17.40;100.00
29385;BME280;16367;48.736;9.218;2023-07-16T04:39:47;-23723.16;;;17.61;100.00
29385;BME280;16367;48.736;9.218;2023-07-16T04:41:50;-23720.81;;;17.53;100.00
29385;BME280;16367;48.736;9.218;2023-07-16T04:43:51;-23718.13;;;17.45;100.00
29385;BME280;16367;48.736;9.218;2023-07-16T04:45:54;-23720.50;;;17.52;100.00
29385;BME280;16367;48.736;9.218;2023-07-16T04:47:58;-23715.91;;;17.38;100.00
29385;BME280;16367;48.736;9.218;2023-07-16T04:50:01;-23713.41;;;17.30;100.00
29385;BME280;16367;48.736;9.218;2023-07-16T04:52:05;-23719.69;;;17.50;100.00
29385;BME280;16367;48.736;9.218;2023-07-16T04:54:08;-23718.13;;;17.45;100.00
29385;BME280;16367;48.736;9.218;2023-07-16T04:56:11;-23713.09;;;17.29;100.00
29385;BME280;16367;48.736;9.218;2023-07-16T04:58:15;-23711.50;;;17.24;100.00
29385;BME280;16367;48.736;9.218;2023-07-16T05:00:18;-23716.06;;;17.38;100.00
29385;BME280;16367;48.736;9.218;2023-07-16T05:02:20;-23714.03;;;17.32;100.00
29385;BME280;16367;48.736;9.218;2023-07-16T05:04:25;-23714.97;;;17.35;100.00
29385;BME280;16367;48.736;9.218;2023-07-16T05:06:26;-23714.34;;;17.33;100.00
29385;BME280;16367;48.736;9.218;2023-07-16T05:08:29;-23711.34;;;17.23;100.00
29385;BME280;16367;48.736;9.218;2023-07-16T05:10:32;-23715.59;;;17.37;100.00
29385;BME280;16367;48.736;9.218;2023-07-16T05:12:35;-23710.56;;;17.21;100.00
29385;BME280;16367;48.736;9.218;2023-07-16T05:14:43;-23714.34;;;17.33;100.00
29385;BME280;16367;48.736;9.218;2023-07-16T05:16:46;-23716.53;;;17.40;100.00
29385;BME280;16367;48.736;9.218;2023-07-16T05:18:49;-23719.69;;;17.50;100.00
29385;BME280;16367;48.736;9.218;2023-07-16T05:20:53;-23715.75;;;17.37;100.00
29385;BME280;16367;48.736;9.218;2023-07-16T05:22:55;-23720.19;;;17.51;100.00
29385;BME280;16367;48.736;9.218;2023-07-16T05:24:59;-23716.06;;;17.38;100.00
29385;BME280;16367;48.736;9.218;2023-07-16T05:27:02;-23714.34;;;17.33;100.00
29385;BME280;16367;48.736;9.218;2023-07-16T05:29:04;-23717.50;;;17.43;100.00
29385;BME280;16367;48.736;9.218;2023-07-16T05:31:07;-23718.75;;;17.47;100.00
29385;BME280;16367;48.736;9.218;2023-07-16T05:33:10;-23717.50;;;17.43;100.00
29385;BME280;16367;48.736;9.218;2023-07-16T05:35:13;-23720.00;;;17.51;100.00
29385;BME280;16367;48.736;9.218;2023-07-16T05:37:17;-23718.59;;;17.46;100.00
29385;BME280;16367;48.736;9.218;2023-07-16T05:39:19;-23719.06;;;17.48;100.00
29385;BME280;16367;48.736;9.218;2023-07-16T05:41:22;-23720.19;;;17.51;100.00
29385;BME280;16367;48.736;9.218;2023-07-16T05:43:25;-23724.59;;;17.65;100.00
29385;BME280;16367;48.736;9.218;2023-07-16T05:45:29;-23726.47;;;17.71;100.00
29385;BME280;16367;48.736;9.218;2023-07-16T05:47:32;-23725.06;;;17.67;100.00
29385;BME280;16367;48.736;9.218;2023-07-16T05:49:35;-23731.66;;;17.88;100.00
29385;BME280;16367;48.736;9.218;2023-07-16T05:51:37;-23730.25;;;17.83;100.00
29385;BME280;16367;48.736;9.218;2023-07-16T05:53:41;-23728.50;;;17.78;100.00
29385;BME280;16367;48.736;9.218;2023-07-16T05:55:44;-23732.13;;;17.90;100.00
29385;BME280;16367;48.736;9.218;2023-07-16T05:57:47;-23733.69;;;17.95;100.00
29385;BME280;16367;48.736;9.218;2023-07-16T05:59:50;-23738.56;;;18.10;100.00
29385;BME280;16367;48.736;9.218;2023-07-16T06:01:56;-23753.38;;;18.57;100.00
29385;BME280;16367;48.736;9.218;2023-07-16T06:04:00;-23760.91;;;18.82;100.00
29385;BME280;16367;48.736;9.218;2023-07-16T06:06:04;-23761.22;;;18.83;100.00
29385;BME280;16367;48.736;9.218;2023-07-16T06:08:06;-23760.91;;;18.82;100.00
29385;BME280;16367;48.736;9.218;2023-07-16T06:10:11;-23755.56;;;18.65;100.00
29385;BME280;16367;48.736;9.218;2023-07-16T06:12:14;-23752.41;;;18.54;100.00
29385;BME280;16367;48.736;9.218;2023-07-16T06:14:17;-23747.22;;;18.38;100.00
29385;BME280;16367;48.736;9.218;2023-07-16T06:16:20;-23738.72;;;18.11;100.00
29385;BME280;16367;48.736;9.218;2023-07-16T06:18:23;-23739.06;;;18.12;100.00
29385;BME280;16367;48.736;9.218;2023-07-16T06:20:25;-23739.38;;;18.13;100.00
29385;BME280;16367;48.736;9.218;2023-07-16T06:22:28;-23725.69;;;17.69;100.00
29385;BME280;16367;48.736;9.218;2023-07-16T06:24:31;-23729.31;;;17.80;100.00
29385;BME280;16367;48.736;9.218;2023-07-16T06:26:35;-23728.81;;;17.79;100.00
29385;BME280;16367;48.736;9.218;2023-07-16T06:28:38;-23731.97;;;17.89;100.00
29385;BME280;16367;48.736;9.218;2023-07-16T06:30:41;-23730.41;;;17.84;100.00
29385;BME280;16367;48.736;9.218;2023-07-16T06:32:43;-23731.66;;;17.88;100.00
29385;BME280;16367;48.736;9.218;2023-07-16T06:34:46;-23734.03;;;17.96;100.00
29385;BME280;16367;48.736;9.218;2023-07-16T06:36:49;-23732.59;;;17.91;100.00
29385;BME280;16367;48.736;9.218;2023-07-16T06:38:52;-23730.72;;;17.85;100.00
29385;BME280;16367;48.736;9.218;2023-07-16T06:40:54;-23734.19;;;17.96;100.00
29385;BME280;16367;48.736;9.218;2023-07-16T06:42:59;-23736.69;;;18.04;100.00
29385;BME280;16367;48.736;9.218;2023-07-16T06:45:01;-23747.38;;;18.38;100.00
29385;BME280;16367;48.736;9.218;2023-07-16T06:47:04;-23738.72;;;18.11;100.00
29385;BME280;16367;48.736;9.218;2023-07-16T06:49:07;-23743.13;;;18.25;100.00
29385;BME280;16367;48.736;9.218;2023-07-16T06:51:10;-23742.34;;;18.22;100.00
29385;BME280;16367;48.736;9.218;2023-07-16T06:53:13;-23749.28;;;18.44;100.00
29385;BME280;16367;48.736;9.218;2023-07-16T06:55:16;-23754.00;;;18.59;100.00
29385;BME280;16367;48.736;9.218;2023-07-16T06:57:18;-23748.47;;;18.42;100.00
29385;BME280;16367;48.736;9.218;2023-07-16T06:59:23;-23761.06;;;18.82;100.00
29385;BME280;16367;48.736;9.218;2023-07-16T07:01:25;-23771.59;;;19.16;100.00
29385;BME280;16367;48.736;9.218;2023-07-16T07:03:29;-23778.97;;;19.40;100.00
29385;BME280;16367;48.736;9.218;2023-07-16T07:05:35;-23779.44;;;19.41;100.00
29385;BME280;16367;48.736;9.218;2023-07-16T07:07:38;-23774.72;;;19.26;100.00
29385;BME280;16367;48.736;9.218;2023-07-16T07:09:41;-23800.47;;;20.08;100.00
29385;BME280;16367;48.736;9.218;2023-07-16T07:11:43;-23821.97;;;20.77;100.00
29385;BME280;16367;48.736;9.218;2023-07-16T07:13:46;-23848.16;;;21.62;89.68
29385;BME280;16367;48.736;9.218;2023-07-16T07:15:50;-23867.72;;;22.24;87.36
29385;BME280;16367;48.736;9.218;2023-07-16T07:17:53;-23839.06;;;21.32;89.73
29385;BME280;16367;48.736;9.218;2023-07-16T07:19:56;-23878.84;;;22.60;85.08
29385;BME280;16367;48.736;9.218;2023-07-16T07:21:57;-23874.16;;;22.45;82.66
29385;BME280;16367;48.736;9.218;2023-07-16T07:24:00;-23854.91;;;21.83;85.70
29385;BME280;16367;48.736;9.218;2023-07-16T07:26:03;-23874.31;;;22.46;81.90
29385;BME280;16367;48.736;9.218;2023-07-16T07:28:06;-23852.84;;;21.77;81.14
29385;BME280;16367;48.736;9.218;2023-07-16T07:30:09;-23874.78;;;22.47;78.27
29385;BME280;16367;48.736;9.218;2023-07-16T07:32:14;-23891.38;;;23.01;81.15
29385;BME280;16367;48.736;9.218;2023-07-16T07:34:16;-23867.88;;;22.25;75.58
29385;BME280;16367;48.736;9.218;2023-07-16T07:36:19;-23888.56;;;22.91;73.96
29385;BME280;16367;48.736;9.218;2023-07-16T07:38:22;-23868.84;;;22.28;76.88
29385;BME280;16367;48.736;9.218;2023-07-16T07:40:26;-23880.72;;;22.66;75.55
29385;BME280;16367;48.736;9.218;2023-07-16T07:42:29;-23865.38;;;22.17;82.39
29385;BME280;16367;48.736;9.218;2023-07-16T07:44:32;-23851.44;;;21.72;81.08
29385;BME280;16367;48.736;9.218;2023-07-16T07:46:34;-23835.00;;;21.19;85.08
29385;BME280;16367;48.736;9.218;2023-07-16T07:48:38;-23844.72;;;21.50;86.85
29385;BME280;16367;48.736;9.218;2023-07-16T07:50:41;-23871.03;;;22.35;79.46
29385;BME280;16367;48.736;9.218;2023-07-16T07:52:44;-23844.88;;;21.51;78.15
29385;BME280;16367;48.736;9.218;2023-07-16T07:54:47;-23889.50;;;22.94;75.26
29385;BME280;16367;48.736;9.218;2023-07-16T07:56:50;-23901.84;;;23.34;70.01
29385;BME280;16367;48.736;9.218;2023-07-16T07:58:53;-23945.59;;;24.75;69.04
29385;BME280;16367;48.736;9.218;2023-07-16T08:00:55;-23911.84;;;23.66;68.68
29385;BME280;16367;48.736;9.218;2023-07-16T08:02:58;-23863.66;;;22.11;77.80
29385;BME280;16367;48.736;9.218;2023-07-16T08:05:03;-23854.09;;;21.81;78.41
29385;BME280;16367;48.736;9.218;2023-07-16T08:07:06;-23880.88;;;22.67;76.44
29385;BME280;16367;48.736;9.218;2023-07-16T08:09:09;-23906.22;;;23.48;73.17
29385;BME280;16367;48.736;9.218;2023-07-16T08:11:12;-23907.94;;;23.54;74.42
29385;BME280;16367;48.736;9.218;2023-07-16T08:13:15;-23908.88;;;23.57;68.25
29385;BME280;16367;48.736;9.218;2023-07-16T08:15:18;-23931.38;;;24.29;66.88
29385;BME280;16367;48.736;9.218;2023-07-16T08:17:21;-23918.56;;;23.88;67.87
29385;BME280;16367;48.736;9.218;2023-07-16T08:19:25;-23892.31;;;23.04;70.92
29385;BME280;16367;48.736;9.218;2023-07-16T08:21:29;-23869.00;;;22.29;73.54
29385;BME280;16367;48.736;9.218;2023-07-16T08:23:31;-23904.34;;;23.42;67.56
29385;BME280;16367;48.736;9.218;2023-07-16T08:25:34;-23916.69;;;23.82;66.71
29385;BME280;16367;48.736;9.218;2023-07-16T08:27:37;-23934.03;;;24.38;62.82
29385;BME280;16367;48.736;9.218;2023-07-16T08:29:39;-23945.13;;;24.74;62.13
29385;BME280;16367;48.736;9.218;2023-07-16T08:31:42;-23885.28;;;22.81;67.31
29385;BME280;16367;48.736;9.218;2023-07-16T08:33:45;-23889.81;;;22.95;65.57
29385;BME280;16367;48.736;9.218;2023-07-16T08:35:48;-23867.72;;;22.24;66.67
29385;BME280;16367;48.736;9.218;2023-07-16T08:37:52;-23882.91;;;22.73;67.06
29385;BME280;16367;48.736;9.218;2023-07-16T08:39:55;-23835.16;;;21.20;68.95
29385;BME280;16367;48.736;9.218;2023-07-16T08:41:57;-23899.34;;;23.26;66.17
29385;BME280;16367;48.736;9.218;2023-07-16T08:44:00;-23917.47;;;23.85;61.71
29385;BME280;16367;48.736;9.218;2023-07-16T08:46:03;-23914.19;;;23.74;60.59
29385;BME280;16367;48.736;9.218;2023-07-16T08:48:07;-23880.09;;;22.64;62.64
29385;BME280;16367;48.736;9.218;2023-07-16T08:50:10;-23883.22;;;22.74;64.95
29385;BME280;16367;48.736;9.218;2023-07-16T08:52:14;-23901.06;;;23.32;63.47
29385;BME280;16367;48.736;9.218;2023-07-16T08:54:18;-23882.91;;;22.73;65.52
29385;BME280;16367;48.736;9.218;2023-07-16T08:56:21;-23859.75;;;21.99;67.07
29385;BME280;16367;48.736;9.218;2023-07-16T08:58:24;-23840.63;;;21.37;70.82
29385;BME280;16367;48.736;9.218;2023-07-16T09:00:27;-23848.47;;;21.63;68.40
29385;BME280;16367;48.736;9.218;2023-07-16T09:02:31;-23869.13;;;22.29;66.96
29385;BME280;16367;48.736;9.218;2023-07-16T09:04:35;-23932.16;;;24.32;60.21
29385;BME280;16367;48.736;9.218;2023-07-16T09:06:38;-23924.66;;;24.08;60.77
29385;BME280;16367;48.736;9.218;2023-07-16T09:08:40;-23906.69;;;23.50;60.75
29385;BME280;16367;48.736;9.218;2023-07-16T09:10:53;-23888.25;;;22.90;65.18
29385;BME280;16367;48.736;9.218;2023-07-16T09:12:58;-23872.59;;;22.40;68.23
29385;BME280;16367;48.736;9.218;2023-07-16T09:15:02;-23907.63;;;23.53;61.63
29385;BME280;16367;48.736;9.218;2023-07-16T09:17:05;-23940.91;;;24.60;58.87
29385;BME280;16367;48.736;9.218;2023-07-16T09:19:09;-23961.81;;;25.28;54.13
29385;BME280;16367;48.736;9.218;2023-07-16T09:21:14;-23981.00;;;25.89;52.25
29385;BME280;16367;48.736;9.218;2023-07-16T09:23:17;-23953.88;;;25.02;52.16
29385;BME280;16367;48.736;9.218;2023-07-16T09:25:25;-23973.22;;;25.64;50.96
29385;BME280;16367;48.736;9.218;2023-07-16T09:27:30;-23977.44;;;25.78;50.64
29385;BME280;16367;48.736;9.218;2023-07-16T09:29:33;-23994.91;;;26.34;49.28
29385;BME280;16367;48.736;9.218;2023-07-16T09:31:36;-23975.25;;;25.71;49.69
29385;BME280;16367;48.736;9.218;2023-07-16T09:33:39;-23982.41;;;25.94;50.73
29385;BME280;16367;48.736;9.218;2023-07-16T09:35:41;-23954.81;;;25.05;48.95
29385;BME280;16367;48.736;9.218;2023-07-16T09:37:43;-23968.84;;;25.50;51.99
29385;BME280;16367;48.736;9.218;2023-07-16T09:39:46;-23950.44;;;24.91;53.15
29385;BME280;16367;48.736;9.218;2023-07-16T09:41:50;-23985.06;;;26.03;50.82
29385;BME280;16367;48.736;9.218;2023-07-16T09:43:54;-24003.47;;;26.62;48.74
29385;BME280;16367;48.736;9.218;2023-07-16T09:45:57;-24019.97;;;27.15;48.73
29385;BME280;16367;48.736;9.218;2023-07-16T09:48:00;-23976.34;;;25.74;47.97
29385;BME280;16367;48.736;9.218;2023-07-16T09:50:02;-24015.75;;;27.02;47.04
29385;BME280;16367;48.736;9.218;2023-07-16T09:52:06;-24000.81;;;26.53;46.89
29385;BME280;16367;48.736;9.218;2023-07-16T09:54:12;-23995.97;;;26.38;47.35
29385;BME280;16367;48.736;9.218;2023-07-16T09:56:16;-23995.97;;;26.38;49.18
29385;BME280;16367;48.736;9.218;2023-07-16T09:58:20;-24010.78;;;26.86;47.57
29385;BME280;16367;48.736;9.218;2023-07-16T10:00:27;-24010.63;;;26.85;48.77
29385;BME280;16367;48.736;9.218;2023-07-16T10:02:33;-24014.03;;;26.96;45.95
29385;BME280;16367;48.736;9.218;2023-07-16T10:04:39;-23961.38;;;25.26;50.58
29385;BME280;16367;48.736;9.218;2023-07-16T10:06:49;-24019.66;;;27.14;47.25
29385;BME280;16367;48.736;9.218;2023-07-16T10:08:52;-23970.09;;;25.54;48.95
29385;BME280;16367;48.736;9.218;2023-07-16T10:10:56;-24022.31;;;27.23;47.16
29385;BME280;16367;48.736;9.218;2023-07-16T10:13:02;-24004.84;;;26.67;46.95
29385;BME280;16367;48.736;9.218;2023-07-16T10:15:05;-24026.03;;;27.35;46.35
29385;BME280;16367;48.736;9.218;2023-07-16T10:17:13;-24023.53;;;27.27;46.62
29385;BME280;16367;48.736;9.218;2023-07-16T10:19:22;-24007.19;;;26.74;46.47
29385;BME280;16367;48.736;9.218;2023-07-16T10:21:25;-24023.22;;;27.26;45.84
29385;BME280;16367;48.736;9.218;2023-07-16T10:23:37;-23993.78;;;26.31;47.94
29385;BME280;16367;48.736;9.218;2023-07-16T10:25:47;-24019.97;;;27.15;46.36
29385;BME280;16367;48.736;9.218;2023-07-16T10:27:59;-23976.34;;;25.74;48.53
29385;BME280;16367;48.736;9.218;2023-07-16T10:30:04;-23929.81;;;24.24;51.74
29385;BME280;16367;48.736;9.218;2023-07-16T10:32:07;-23945.91;;;24.76;51.45
29385;BME280;16367;48.736;9.218;2023-07-16T10:34:11;-23960.91;;;25.25;52.15
29385;BME280;16367;48.736;9.218;2023-07-16T10:36:18;-23934.97;;;24.41;52.54
29385;BME280;16367;48.736;9.218;2023-07-16T10:38:21;-23964.31;;;25.36;51.01
29385;BME280;16367;48.736;9.218;2023-07-16T10:40:24;-23942.94;;;24.67;51.14
29385;BME280;16367;48.736;9.218;2023-07-16T10:42:27;-23953.88;;;25.02;51.67